createdAt,value
2022-08-29T00:00:24.639Z,20.88
2022-08-29T00:02:27.077Z,20.85
2022-08-29T00:04:29.272Z,20.88
2022-08-29T00:06:33.655Z,20.85
2022-08-29T00:08:35.657Z,20.85
2022-08-29T00:10:39.072Z,20.83
2022-08-29T00:12:41.347Z,20.81
2022-08-29T00:14:43.693Z,20.82
2022-08-29T00:16:45.893Z,20.71
2022-08-29T00:18:47.919Z,20.71
2022-08-29T00:20:49.961Z,20.69
2022-08-29T00:22:51.978Z,20.68
2022-08-29T00:25:04.963Z,20.63
2022-08-29T00:27:06.910Z,20.65
2022-08-29T00:29:08.912Z,20.63
2022-08-29T00:31:11.405Z,20.65
2022-08-29T00:33:14.829Z,20.58
2022-08-29T00:35:24.151Z,20.61
2022-08-29T00:37:26.107Z,20.61
2022-08-29T00:39:35.528Z,20.58
2022-08-29T00:41:38.528Z,20.57
2022-08-29T00:43:40.717Z,20.56
2022-08-29T00:45:57.418Z,20.53
2022-08-29T00:48:02.705Z,20.57
2022-08-29T00:50:09.305Z,20.54
2022-08-29T00:52:20.546Z,20.54
2022-08-29T00:54:23.824Z,20.50
2022-08-29T00:56:26.617Z,20.50
2022-08-29T00:58:51.408Z,20.50
2022-08-29T01:00:54.014Z,20.47
2022-08-29T01:02:56.242Z,20.43
2022-08-29T01:05:00.049Z,20.43
2022-08-29T01:07:02.254Z,20.38
2022-08-29T01:09:06.542Z,20.40
2022-08-29T01:11:28.620Z,20.41
2022-08-29T01:13:36.489Z,20.45
2022-08-29T01:15:40.694Z,20.43
2022-08-29T01:17:46.154Z,20.41
2022-08-29T01:20:16.135Z,20.41
2022-08-29T01:22:40.026Z,20.40
2022-08-29T01:24:50.804Z,20.32
2022-08-29T01:26:53.417Z,20.37
2022-08-29T01:28:56.588Z,20.31
2022-08-29T01:31:06.269Z,20.26
2022-08-29T01:33:08.489Z,20.29
2022-08-29T01:35:12.934Z,20.29
2022-08-29T01:37:16.964Z,20.26
2022-08-29T01:39:33.093Z,20.28
2022-08-29T01:41:35.635Z,20.27
2022-08-29T01:43:44.341Z,20.27
2022-08-29T01:45:47.272Z,20.28
2022-08-29T01:47:49.169Z,20.23
2022-08-29T01:49:51.670Z,20.21
2022-08-29T01:51:53.621Z,20.24
2022-08-29T01:53:55.948Z,20.22
2022-08-29T01:55:57.991Z,20.13
2022-08-29T01:57:59.934Z,20.08
2022-08-29T02:00:02.710Z,20.18
2022-08-29T02:02:29.711Z,20.18
2022-08-29T02:04:32.740Z,20.16
2022-08-29T02:06:36.363Z,20.09
2022-08-29T02:08:41.753Z,20.16
2022-08-29T02:10:43.941Z,20.14
2022-08-29T02:12:46.138Z,20.17
2022-08-29T02:14:50.952Z,20.17
2022-08-29T02:16:53.014Z,20.15
2022-08-29T02:18:56.108Z,20.16
2022-08-29T02:20:58.490Z,20.17
2022-08-29T02:23:00.517Z,20.17
2022-08-29T02:25:03.427Z,20.16
2022-08-29T02:27:05.471Z,20.13
2022-08-29T02:29:07.423Z,20.18
2022-08-29T02:31:09.837Z,20.20
2022-08-29T02:33:13.950Z,20.20
2022-08-29T02:35:16.589Z,20.17
2022-08-29T02:37:18.818Z,20.17
2022-08-29T02:39:31.316Z,20.14
2022-08-29T02:41:33.478Z,20.18
2022-08-29T02:43:35.845Z,20.18
2022-08-29T02:45:40.336Z,20.17
2022-08-29T02:47:42.787Z,20.17
2022-08-29T02:49:45.631Z,20.19
2022-08-29T02:51:47.823Z,20.14
2022-08-29T02:53:50.976Z,20.10
2022-08-29T02:55:53.797Z,20.10
2022-08-29T02:57:55.689Z,20.12
2022-08-29T02:59:57.607Z,20.07
2022-08-29T03:01:59.542Z,20.07
2022-08-29T03:04:02.415Z,20.07
2022-08-29T03:06:04.557Z,20.04
2022-08-29T03:08:09.309Z,20.04
2022-08-29T03:10:11.506Z,20.03
2022-08-29T03:12:13.460Z,20.02
2022-08-29T03:14:15.969Z,20.04
2022-08-29T03:16:18.481Z,20.00
2022-08-29T03:18:20.505Z,20.00
2022-08-29T03:20:24.852Z,19.97
2022-08-29T03:22:28.179Z,19.98
2022-08-29T03:24:30.040Z,19.97
2022-08-29T03:26:32.037Z,19.94
2022-08-29T03:28:34.005Z,19.93
2022-08-29T03:30:36.013Z,19.88
2022-08-29T03:32:38.894Z,19.95
2022-08-29T03:34:41.368Z,19.91
2022-08-29T03:36:43.277Z,19.95
2022-08-29T03:38:46.751Z,19.92
2022-08-29T03:40:48.528Z,19.92
2022-08-29T03:42:50.732Z,19.89
2022-08-29T03:44:52.718Z,19.88
2022-08-29T03:46:54.668Z,19.86
2022-08-29T03:48:56.504Z,19.86
2022-08-29T03:51:08.276Z,19.89
2022-08-29T03:53:10.132Z,19.83
2022-08-29T03:55:13.073Z,19.82
2022-08-29T03:57:14.938Z,19.78
2022-08-29T03:59:18.069Z,19.80
2022-08-29T04:01:22.757Z,19.79
2022-08-29T04:03:31.074Z,19.75
2022-08-29T04:05:33.450Z,19.78
2022-08-29T04:07:40.201Z,19.76
2022-08-29T04:09:42.418Z,19.72
2022-08-29T04:11:44.326Z,19.71
2022-08-29T04:13:47.978Z,19.71
2022-08-29T04:15:50.447Z,19.70
2022-08-29T04:17:55.433Z,19.66
2022-08-29T04:19:57.824Z,19.65
2022-08-29T04:22:00.313Z,19.62
2022-08-29T04:24:03.262Z,19.66
2022-08-29T04:26:27.085Z,19.58
2022-08-29T04:28:27.431Z,19.59
2022-08-29T04:30:32.457Z,19.59
2022-08-29T04:32:34.515Z,19.57
2022-08-29T04:34:37.560Z,19.56
2022-08-29T04:36:43.873Z,19.54
2022-08-29T04:38:45.816Z,19.57
2022-08-29T04:40:48.177Z,19.54
2022-08-29T04:42:50.361Z,19.52
2022-08-29T04:44:52.670Z,19.51
2022-08-29T04:46:54.620Z,19.51
2022-08-29T04:49:00.552Z,19.49
2022-08-29T04:51:09.709Z,19.53
2022-08-29T04:53:12.785Z,19.54
2022-08-29T04:55:21.334Z,19.52
2022-08-29T04:57:24.895Z,19.50
2022-08-29T04:59:26.758Z,19.50
2022-08-29T05:01:30.379Z,19.48
2022-08-29T05:03:32.929Z,19.47
2022-08-29T05:05:34.792Z,19.47
2022-08-29T05:07:38.198Z,19.47
2022-08-29T05:09:40.361Z,19.49
2022-08-29T05:11:42.970Z,19.48
2022-08-29T05:13:45.279Z,19.45
2022-08-29T05:15:47.334Z,19.48
2022-08-29T05:17:49.371Z,19.44
2022-08-29T05:19:51.211Z,19.41
2022-08-29T05:21:58.049Z,19.41
2022-08-29T05:24:00.480Z,19.38
2022-08-29T05:26:04.623Z,19.38
2022-08-29T05:28:06.739Z,19.32
2022-08-29T05:30:09.029Z,19.38
2022-08-29T05:32:12.542Z,19.36
2022-08-29T05:34:34.830Z,19.37
2022-08-29T05:36:36.337Z,19.37
2022-08-29T05:38:38.078Z,19.36
2022-08-29T05:40:39.955Z,19.39
2022-08-29T05:42:43.014Z,19.35
2022-08-29T05:44:44.780Z,19.27
2022-08-29T05:46:46.955Z,19.32
2022-08-29T05:48:50.498Z,19.35
2022-08-29T05:50:52.152Z,19.37
2022-08-29T05:52:53.843Z,19.42
2022-08-29T05:54:55.637Z,19.40
2022-08-29T05:56:57.398Z,19.41
2022-08-29T05:58:59.175Z,19.45
2022-08-29T06:01:04.954Z,19.46
2022-08-29T06:03:07.007Z,19.45
2022-08-29T06:05:09.137Z,19.43
2022-08-29T06:07:13.114Z,19.47
2022-08-29T06:09:14.821Z,19.52
2022-08-29T06:11:22.593Z,19.43
2022-08-29T06:13:24.234Z,19.50
2022-08-29T06:15:28.619Z,19.52
2022-08-29T06:17:30.402Z,19.57
2022-08-29T06:19:34.947Z,19.61
2022-08-29T06:21:36.638Z,19.62
2022-08-29T06:23:39.879Z,19.65
2022-08-29T06:25:41.533Z,19.66
2022-08-29T06:27:43.230Z,19.69
2022-08-29T06:29:44.982Z,19.70
2022-08-29T06:31:46.652Z,19.68
2022-08-29T06:33:52.024Z,19.72
2022-08-29T06:35:53.702Z,19.73
2022-08-29T06:37:55.533Z,19.68
2022-08-29T06:39:57.359Z,19.74
2022-08-29T06:41:59.085Z,19.78
2022-08-29T06:44:01.314Z,19.76
2022-08-29T06:46:03.630Z,19.74
2022-08-29T06:48:05.395Z,19.81
2022-08-29T06:50:10.474Z,19.82
2022-08-29T06:52:13.155Z,19.84
2022-08-29T06:54:17.145Z,19.80
2022-08-29T06:56:20.493Z,19.89
2022-08-29T06:58:22.329Z,19.87
2022-08-29T07:00:24.011Z,19.88
2022-08-29T07:02:25.687Z,19.93
2022-08-29T07:04:27.527Z,19.98
2022-08-29T07:06:29.859Z,19.94
2022-08-29T07:08:32.562Z,19.96
2022-08-29T07:10:34.860Z,20.05
2022-08-29T07:12:36.514Z,20.09
2022-08-29T07:14:38.283Z,20.14
2022-08-29T07:16:41.081Z,20.09
2022-08-29T07:18:44.355Z,20.17
2022-08-29T07:20:46.062Z,20.17
2022-08-29T07:22:51.367Z,20.21
2022-08-29T07:24:54.157Z,20.24
2022-08-29T07:26:55.928Z,20.24
2022-08-29T07:29:03.099Z,20.30
2022-08-29T07:31:07.474Z,20.34
2022-08-29T07:33:09.593Z,20.38
2022-08-29T07:35:19.836Z,20.35
2022-08-29T07:37:30.885Z,20.44
2022-08-29T07:39:33.343Z,20.48
2022-08-29T07:41:35.105Z,20.45
2022-08-29T07:43:37.979Z,20.48
2022-08-29T07:45:40.299Z,20.55
2022-08-29T07:47:42.000Z,20.59
2022-08-29T07:49:43.687Z,20.58
2022-08-29T07:51:45.473Z,20.62
2022-08-29T07:53:47.288Z,20.65
2022-08-29T07:55:49.026Z,20.63
2022-08-29T07:57:52.616Z,20.66
2022-08-29T07:59:54.345Z,20.54
2022-08-29T08:01:56.105Z,20.63
2022-08-29T08:03:58.538Z,20.71
2022-08-29T08:06:00.699Z,20.67
2022-08-29T08:08:15.032Z,20.77
2022-08-29T08:10:19.636Z,20.75
2022-08-29T08:12:23.080Z,20.74
2022-08-29T08:14:34.568Z,20.74
2022-08-29T08:16:37.365Z,20.78
2022-08-29T08:18:40.467Z,20.84
2022-08-29T08:20:48.398Z,20.79
2022-08-29T08:22:50.276Z,20.78
2022-08-29T08:24:53.064Z,20.89
2022-08-29T08:26:54.718Z,20.83
2022-08-29T08:28:56.479Z,20.84
2022-08-29T08:31:07.901Z,20.94
2022-08-29T08:33:10.112Z,20.90
2022-08-29T08:35:12.847Z,20.95
2022-08-29T08:37:15.985Z,20.97
2022-08-29T08:39:29.463Z,21.02
2022-08-29T08:41:34.014Z,21.07
2022-08-29T08:43:57.772Z,21.02
2022-08-29T08:45:59.553Z,21.07
2022-08-29T08:48:34.600Z,21.15
2022-08-29T08:50:54.949Z,21.18
2022-08-29T08:53:10.490Z,21.16
2022-08-29T08:55:28.366Z,21.26
2022-08-29T08:57:40.002Z,21.26
2022-08-29T08:59:56.646Z,21.35
2022-08-29T09:02:07.432Z,21.32
2022-08-29T09:04:36.484Z,21.38
2022-08-29T09:06:59.922Z,21.44
2022-08-29T09:09:15.952Z,21.49
2022-08-29T09:11:28.897Z,21.54
2022-08-29T09:13:53.247Z,21.54
2022-08-29T09:15:58.355Z,21.60
2022-08-29T09:18:17.123Z,21.65
2022-08-29T09:20:26.271Z,21.65
2022-08-29T09:22:33.017Z,21.70
2022-08-29T09:24:46.745Z,21.71
2022-08-29T09:26:49.740Z,21.79
2022-08-29T09:28:51.486Z,21.94
2022-08-29T09:31:15.386Z,22.02
2022-08-29T09:33:17.555Z,22.10
2022-08-29T09:35:24.559Z,22.18
2022-08-29T09:37:32.993Z,22.30
2022-08-29T09:39:36.328Z,22.31
2022-08-29T09:41:38.750Z,22.36
2022-08-29T09:43:40.379Z,22.47
2022-08-29T09:46:02.898Z,22.45
2022-08-29T09:48:15.224Z,22.53
2022-08-29T09:50:27.852Z,22.58
2022-08-29T09:52:29.721Z,22.71
2022-08-29T09:54:32.027Z,22.73
2022-08-29T09:56:37.417Z,22.81
2022-08-29T09:58:41.779Z,22.84
2022-08-29T10:01:14.058Z,22.82
2022-08-29T10:03:29.999Z,22.87
2022-08-29T10:05:46.983Z,22.93
2022-08-29T10:07:51.978Z,22.97
2022-08-29T10:10:19.983Z,23.01
2022-08-29T10:12:31.928Z,23.16
2022-08-29T10:14:46.757Z,23.24
2022-08-29T10:17:20.390Z,23.25
2022-08-29T10:19:33.050Z,23.34
2022-08-29T10:22:05.228Z,23.39
2022-08-29T10:24:17.340Z,23.35
2022-08-29T10:26:53.566Z,23.40
2022-08-29T10:29:11.136Z,23.40
2022-08-29T10:31:33.806Z,23.39
2022-08-29T10:34:14.548Z,23.45
2022-08-29T10:36:22.717Z,23.47
2022-08-29T10:38:33.461Z,23.43
2022-08-29T10:40:47.628Z,23.47
2022-08-29T10:42:51.472Z,23.46
2022-08-29T10:45:20.724Z,23.50
2022-08-29T10:47:47.659Z,23.50
2022-08-29T10:49:56.849Z,23.50
2022-08-29T10:52:23.708Z,23.45
2022-08-29T10:54:56.311Z,23.52
2022-08-29T10:57:00.150Z,23.38
2022-08-29T10:59:19.939Z,23.45
2022-08-29T11:01:24.272Z,23.57
2022-08-29T11:03:25.928Z,23.65
2022-08-29T11:05:40.701Z,23.66
2022-08-29T11:07:50.690Z,23.74
2022-08-29T11:09:57.356Z,23.72
2022-08-29T11:12:10.672Z,23.74
2022-08-29T11:15:00.966Z,23.78
2022-08-29T11:17:07.296Z,23.85
2022-08-29T11:19:47.041Z,23.86
2022-08-29T11:21:51.573Z,23.92
2022-08-29T11:23:58.375Z,23.99
2022-08-29T11:26:27.241Z,23.97
2022-08-29T11:31:22.109Z,24.05
2022-08-29T11:33:44.904Z,24.11
2022-08-29T11:35:49.408Z,24.22
2022-08-29T11:38:25.562Z,24.28
2022-08-29T11:42:51.123Z,24.43
2022-08-29T11:44:55.813Z,24.49
2022-08-29T11:46:58.953Z,24.57
2022-08-29T11:49:24.744Z,24.62
2022-08-29T11:51:38.071Z,24.66
2022-08-29T11:53:39.902Z,24.71
2022-08-29T11:56:05.521Z,24.73
2022-08-29T11:58:27.145Z,24.51
2022-08-29T12:00:39.733Z,24.49
2022-08-29T12:02:48.317Z,24.60
2022-08-29T12:05:04.592Z,24.65
2022-08-29T12:07:08.249Z,24.68
2022-08-29T12:09:13.813Z,24.70
2022-08-29T12:11:15.941Z,24.83
2022-08-29T12:13:48.802Z,24.99
2022-08-29T12:15:54.865Z,25.05
2022-08-29T12:18:22.643Z,25.18
2022-08-29T12:20:30.320Z,25.22
2022-08-29T12:24:55.187Z,24.95
2022-08-29T12:26:59.922Z,24.98
2022-08-29T12:29:02.248Z,24.89
2022-08-29T12:31:17.138Z,25.03
2022-08-29T12:33:41.191Z,25.03
2022-08-29T12:36:21.049Z,24.95
2022-08-29T12:38:50.491Z,24.89
2022-08-29T12:41:13.006Z,24.82
2022-08-29T12:43:44.704Z,24.88
2022-08-29T12:45:47.611Z,24.85
2022-08-29T12:47:54.923Z,24.85
2022-08-29T12:50:01.858Z,24.89
2022-08-29T12:52:08.283Z,24.83
2022-08-29T12:54:13.398Z,24.83
2022-08-29T12:56:22.238Z,24.91
2022-08-29T12:58:35.656Z,24.94
2022-08-29T13:00:38.100Z,24.95
2022-08-29T13:02:41.188Z,24.90
2022-08-29T13:04:43.995Z,24.90
2022-08-29T13:06:58.839Z,24.81
2022-08-29T13:09:01.907Z,24.71
2022-08-29T13:11:14.853Z,24.72
2022-08-29T13:13:21.006Z,24.65
2022-08-29T13:15:32.983Z,24.76
2022-08-29T13:17:39.843Z,24.70
2022-08-29T13:19:42.191Z,24.77
2022-08-29T13:21:43.993Z,24.78
2022-08-29T13:23:47.277Z,24.90
2022-08-29T13:25:54.417Z,24.97
2022-08-29T13:28:01.622Z,25.07
2022-08-29T13:30:04.802Z,25.11
2022-08-29T13:32:24.197Z,25.19
2022-08-29T13:34:26.006Z,25.19
2022-08-29T13:36:28.275Z,25.12
2022-08-29T13:38:30.205Z,25.06
2022-08-29T13:40:43.870Z,25.01
2022-08-29T13:42:45.698Z,25.02
2022-08-29T13:44:47.524Z,24.97
2022-08-29T13:46:52.345Z,24.97
2022-08-29T13:49:02.918Z,24.72
2022-08-29T13:51:10.243Z,24.78
2022-08-29T13:53:11.999Z,24.71
2022-08-29T13:55:13.841Z,24.56
2022-08-29T13:57:23.543Z,24.50
2022-08-29T13:59:27.639Z,24.41
2022-08-29T14:01:30.185Z,24.42
2022-08-29T14:03:33.210Z,24.35
2022-08-29T14:05:35.747Z,24.23
2022-08-29T14:07:38.451Z,24.18
2022-08-29T14:09:43.123Z,24.16
2022-08-29T14:11:44.862Z,24.08
2022-08-29T14:13:47.475Z,24.07
2022-08-29T14:15:49.352Z,24.15
2022-08-29T14:17:51.128Z,24.13
2022-08-29T14:19:53.334Z,24.07
2022-08-29T14:21:55.515Z,24.13
2022-08-29T14:23:57.253Z,24.15
2022-08-29T14:25:59.805Z,24.16
2022-08-29T14:28:01.573Z,24.15
2022-08-29T14:30:06.081Z,24.19
2022-08-29T14:32:07.806Z,24.22
2022-08-29T14:34:09.519Z,24.10
2022-08-29T14:36:12.578Z,24.09
2022-08-29T14:38:14.552Z,24.13
2022-08-29T14:40:16.673Z,24.17
2022-08-29T14:42:23.684Z,24.18
2022-08-29T14:44:25.410Z,24.26
2022-08-29T14:46:28.871Z,24.28
2022-08-29T14:48:30.745Z,24.27
2022-08-29T14:50:33.194Z,24.29
2022-08-29T14:52:35.004Z,24.29
2022-08-29T14:54:36.668Z,24.23
2022-08-29T14:56:55.005Z,24.13
2022-08-29T14:58:58.081Z,24.10
2022-08-29T15:01:09.850Z,24.16
2022-08-29T15:03:11.734Z,24.13
2022-08-29T15:05:13.610Z,24.12
2022-08-29T15:07:16.054Z,24.09
2022-08-29T15:09:17.806Z,23.99
2022-08-29T15:11:19.577Z,23.93
2022-08-29T15:13:21.305Z,24.01
2022-08-29T15:15:29.635Z,23.92
2022-08-29T15:17:31.563Z,24.09
2022-08-29T15:21:55.430Z,24.50
2022-08-29T15:23:58.367Z,24.60
2022-08-29T15:26:00.878Z,24.65
2022-08-29T15:28:03.362Z,24.65
2022-08-29T15:30:06.068Z,24.68
2022-08-29T15:32:08.622Z,24.65
2022-08-29T15:34:10.266Z,24.73
2022-08-29T15:36:12.021Z,24.74
2022-08-29T15:38:13.951Z,24.66
2022-08-29T15:40:16.377Z,24.59
2022-08-29T15:42:18.585Z,24.55
2022-08-29T15:44:24.086Z,24.61
2022-08-29T15:46:27.275Z,24.58
2022-08-29T15:48:33.712Z,24.49
2022-08-29T15:50:35.909Z,24.65
2022-08-29T15:52:38.480Z,24.70
2022-08-29T15:54:40.452Z,24.68
2022-08-29T15:56:42.734Z,24.68
2022-08-29T15:58:44.427Z,24.56
2022-08-29T16:00:47.235Z,24.41
2022-08-29T16:02:48.955Z,24.25
2022-08-29T16:04:54.806Z,24.39
2022-08-29T16:06:59.073Z,24.21
2022-08-29T16:09:01.687Z,24.27
2022-08-29T16:11:07.691Z,24.25
2022-08-29T16:13:09.498Z,24.31
2022-08-29T16:15:12.233Z,24.18
2022-08-29T16:17:14.174Z,24.08
2022-08-29T16:19:17.349Z,24.16
2022-08-29T16:21:21.442Z,24.24
2022-08-29T16:23:23.171Z,24.30
2022-08-29T16:25:25.526Z,24.21
2022-08-29T16:27:27.497Z,24.26
2022-08-29T16:29:29.393Z,24.24
2022-08-29T16:31:31.273Z,24.28
2022-08-29T16:33:33.154Z,24.27
2022-08-29T16:35:34.893Z,24.18
2022-08-29T16:37:37.561Z,24.14
2022-08-29T16:39:39.246Z,24.17
2022-08-29T16:41:41.268Z,24.03
2022-08-29T16:43:43.795Z,24.05
2022-08-29T16:45:45.753Z,24.07
2022-08-29T16:47:47.497Z,24.03
2022-08-29T16:49:49.167Z,24.07
2022-08-29T16:51:52.548Z,23.96
2022-08-29T16:53:54.640Z,23.96
2022-08-29T16:55:56.330Z,24.04
2022-08-29T16:58:17.684Z,23.89
2022-08-29T17:00:19.458Z,23.76
2022-08-29T17:02:25.755Z,23.84
2022-08-29T17:04:28.236Z,23.88
2022-08-29T17:06:31.769Z,23.80
2022-08-29T17:08:33.494Z,23.84
2022-08-29T17:10:35.127Z,23.83
2022-08-29T17:12:36.825Z,23.73
2022-08-29T17:14:38.528Z,23.81
2022-08-29T17:16:42.671Z,23.83
2022-08-29T17:18:44.519Z,23.81
2022-08-29T17:20:48.398Z,23.75
2022-08-29T17:22:50.429Z,23.80
2022-08-29T17:24:52.132Z,23.79
2022-08-29T17:26:53.938Z,23.79
2022-08-29T17:28:56.024Z,23.72
2022-08-29T17:31:07.088Z,23.65
2022-08-29T17:33:10.814Z,23.66
2022-08-29T17:35:12.606Z,23.67
2022-08-29T17:37:14.284Z,23.59
2022-08-29T17:39:15.942Z,23.64
2022-08-29T17:41:22.146Z,23.63
2022-08-29T17:43:26.066Z,23.58
2022-08-29T17:45:28.180Z,23.54
2022-08-29T17:47:29.972Z,23.46
2022-08-29T17:49:32.465Z,23.48
2022-08-29T17:51:34.857Z,23.51
2022-08-29T17:53:36.598Z,23.57
2022-08-29T17:55:38.390Z,23.56
2022-08-29T17:57:40.074Z,23.50
2022-08-29T17:59:42.633Z,23.46
2022-08-29T18:01:45.031Z,23.27
2022-08-29T18:03:47.066Z,23.31
2022-08-29T18:05:48.765Z,23.29
2022-08-29T18:07:51.871Z,23.29
2022-08-29T18:09:53.605Z,23.32
2022-08-29T18:11:58.355Z,23.31
2022-08-29T18:14:01.230Z,23.21
2022-08-29T18:16:03.111Z,23.17
2022-08-29T18:18:05.563Z,23.16
2022-08-29T18:20:10.217Z,23.11
2022-08-29T18:22:12.182Z,23.04
2022-08-29T18:24:15.886Z,23.03
2022-08-29T18:26:17.934Z,22.99
2022-08-29T18:28:20.098Z,22.86
2022-08-29T18:30:22.349Z,22.90
2022-08-29T18:32:25.778Z,22.89
2022-08-29T18:34:27.802Z,22.84
2022-08-29T18:36:31.744Z,22.81
2022-08-29T18:38:34.981Z,22.76
2022-08-29T18:40:39.566Z,22.81
2022-08-29T18:42:42.004Z,22.75
2022-08-29T18:44:44.058Z,22.70
2022-08-29T18:46:47.845Z,22.69
2022-08-29T18:48:52.062Z,22.59
2022-08-29T18:50:54.160Z,22.56
2022-08-29T18:52:57.777Z,22.57
2022-08-29T18:54:59.715Z,22.55
2022-08-29T18:57:01.773Z,22.52
2022-08-29T18:59:05.710Z,22.56
2022-08-29T19:01:26.947Z,22.53
2022-08-29T19:03:30.259Z,22.53
2022-08-29T19:05:34.786Z,22.40
2022-08-29T19:07:36.896Z,22.44
2022-08-29T19:09:39.024Z,22.41
2022-08-29T19:11:40.970Z,22.39
2022-08-29T19:13:43.597Z,22.37
2022-08-29T19:15:47.571Z,22.36
2022-08-29T19:17:49.974Z,22.31
2022-08-29T19:20:10.625Z,22.31
2022-08-29T19:22:14.294Z,22.27
2022-08-29T19:24:16.281Z,22.23
2022-08-29T19:26:22.921Z,22.19
2022-08-29T19:28:25.104Z,22.16
2022-08-29T19:30:27.521Z,22.15
2022-08-29T19:32:29.792Z,22.12
2022-08-29T19:34:31.661Z,22.10
2022-08-29T19:36:34.444Z,22.01
2022-08-29T19:38:37.723Z,22.01
2022-08-29T19:40:43.946Z,21.95
2022-08-29T19:42:47.222Z,21.93
2022-08-29T19:44:49.430Z,21.94
2022-08-29T19:46:52.115Z,21.89
2022-08-29T19:48:55.061Z,21.87
2022-08-29T19:51:08.749Z,21.86
2022-08-29T19:53:13.620Z,21.86
2022-08-29T19:55:18.052Z,21.84
2022-08-29T19:57:20.396Z,21.82
2022-08-29T19:59:22.437Z,21.82
2022-08-29T20:01:24.520Z,21.72
2022-08-29T20:03:27.872Z,21.71
2022-08-29T20:05:29.821Z,21.71
2022-08-29T20:07:32.525Z,21.67
2022-08-29T20:09:36.314Z,21.67
2022-08-29T20:11:43.454Z,21.61
2022-08-29T20:13:50.568Z,21.66
2022-08-29T20:15:53.673Z,21.57
2022-08-29T20:17:57.727Z,21.64
2022-08-29T20:19:59.524Z,21.63
2022-08-29T20:22:01.200Z,21.64
2022-08-29T20:24:04.620Z,21.62
2022-08-29T20:26:07.065Z,21.68
2022-08-29T20:28:15.457Z,21.64
2022-08-29T20:30:22.889Z,21.64
2022-08-29T20:32:25.963Z,21.62
2022-08-29T20:34:29.829Z,21.55
2022-08-29T20:36:50.372Z,21.60
2022-08-29T20:38:51.997Z,21.59
2022-08-29T20:40:53.767Z,21.57
2022-08-29T20:42:55.623Z,21.49
2022-08-29T20:44:58.046Z,21.46
2022-08-29T20:46:59.949Z,21.39
2022-08-29T20:49:01.816Z,21.49
2022-08-29T20:51:12.806Z,21.47
2022-08-29T20:53:31.650Z,21.52
2022-08-29T20:55:34.822Z,21.39
2022-08-29T20:57:39.190Z,21.43
2022-08-29T20:59:40.969Z,21.43
2022-08-29T21:01:43.620Z,21.40
2022-08-29T21:04:03.623Z,21.43
2022-08-29T21:06:05.748Z,21.39
2022-08-29T21:08:13.243Z,21.26
2022-08-29T21:10:15.061Z,21.31
2022-08-29T21:12:18.010Z,21.32
2022-08-29T21:14:22.585Z,21.27
2022-08-29T21:16:24.423Z,21.31
2022-08-29T21:18:26.317Z,21.24
2022-08-29T21:20:30.019Z,21.30
2022-08-29T21:22:31.746Z,21.28
2022-08-29T21:24:34.081Z,21.25
2022-08-29T21:26:37.033Z,21.23
2022-08-29T21:28:39.574Z,21.20
2022-08-29T21:30:45.453Z,21.20
2022-08-29T21:32:48.390Z,21.19
2022-08-29T21:34:50.071Z,21.11
2022-08-29T21:36:51.922Z,21.18
2022-08-29T21:39:00.846Z,21.09
2022-08-29T21:41:14.175Z,21.03
2022-08-29T21:43:16.141Z,20.99
2022-08-29T21:45:17.983Z,21.02
2022-08-29T21:47:19.678Z,21.01
2022-08-29T21:49:21.955Z,20.97
2022-08-29T21:51:24.367Z,20.94
2022-08-29T21:53:27.586Z,20.93
2022-08-29T21:55:29.743Z,20.91
2022-08-29T21:57:50.192Z,20.93
2022-08-29T21:59:51.900Z,20.93
2022-08-29T22:01:55.113Z,20.85
2022-08-29T22:03:59.350Z,20.89
2022-08-29T22:06:02.445Z,20.92
2022-08-29T22:08:05.117Z,20.86
2022-08-29T22:10:18.886Z,20.82
2022-08-29T22:12:20.607Z,20.80
2022-08-29T22:14:42.672Z,20.75
2022-08-29T22:16:44.527Z,20.75
2022-08-29T22:18:46.606Z,20.72
2022-08-29T22:20:48.548Z,20.68
2022-08-29T22:22:54.771Z,20.72
2022-08-29T22:24:56.416Z,20.66
2022-08-29T22:26:58.459Z,20.66
2022-08-29T22:29:00.396Z,20.62
2022-08-29T22:31:10.388Z,20.57
2022-08-29T22:33:12.890Z,20.60
2022-08-29T22:35:18.436Z,20.59
2022-08-29T22:37:38.695Z,20.59
2022-08-29T22:39:41.289Z,20.54
2022-08-29T22:41:47.541Z,20.53
2022-08-29T22:44:03.016Z,20.52
2022-08-29T22:46:16.505Z,20.51
2022-08-29T22:48:19.618Z,20.40
2022-08-29T22:50:24.325Z,20.39
2022-08-29T22:52:26.358Z,20.42
2022-08-29T22:54:37.185Z,20.36
2022-08-29T22:56:42.159Z,20.42
2022-08-29T22:58:44.055Z,20.40
2022-08-29T23:00:46.471Z,20.34
2022-08-29T23:02:49.448Z,20.34
2022-08-29T23:04:52.491Z,20.34
2022-08-29T23:06:54.715Z,20.24
2022-08-29T23:08:57.166Z,20.27
2022-08-29T23:11:10.918Z,20.25
2022-08-29T23:13:12.965Z,20.24
2022-08-29T23:15:18.170Z,20.13
2022-08-29T23:17:20.359Z,20.15
2022-08-29T23:19:22.257Z,20.09
2022-08-29T23:21:24.302Z,20.08
2022-08-29T23:23:26.315Z,20.04
2022-08-29T23:25:28.431Z,20.05
2022-08-29T23:27:32.124Z,20.00
2022-08-29T23:29:36.676Z,20.00
2022-08-29T23:31:43.998Z,19.98
2022-08-29T23:33:46.076Z,19.95
2022-08-29T23:35:48.174Z,19.95
2022-08-29T23:37:50.410Z,19.93
2022-08-29T23:39:52.624Z,19.80
2022-08-29T23:41:54.679Z,19.83
2022-08-29T23:43:56.797Z,19.79
2022-08-29T23:45:59.526Z,19.82
2022-08-29T23:48:01.823Z,19.78
2022-08-29T23:50:05.756Z,19.74
2022-08-29T23:52:07.703Z,19.72
2022-08-29T23:54:09.662Z,19.69
2022-08-29T23:56:14.532Z,19.68
2022-08-29T23:58:18.413Z,19.68
